Airfield :
LOGIN :

Register | Disclaimer

   EN    FR    IT 

 










Legend :    VFR   Marginal VFR   IFR   Intensive IFR   Very Intensive IFR
Visi :
Ceiling :
>= 8 km
>= 3000ft
5 to 8 km
1000 to 3000 ft
1500m to 5 km
500 to 1000 ft
800 to 1500m
200 to 500 ft
< 800m
< 200 ft
Symbols :   Thunderstorms  Fog  Heavy snow  Heavy precipitations  Wind > 20 kt
SIGMETs :     Misc.  Thunderstorms  Icing  Turbulence  Mountain Waves  Volcanic Ashes






- Airport Elevation : 308 ft
- IATA code : ATH


LGAV - Eleftherios Venizelos Int.

CURRENT METAR :
  • 300950Z 10005KT 050V140 9999 FEW030 15/06 Q1012 NOSIG

EXPIRED METARs :
  • 300920Z 09005KT 050V120 9999 FEW030 15/08 Q1012 NOSIG
  • 300850Z VRB03KT 9999 FEW025 15/08 Q1013 NOSIG
  • 300820Z VRB03KT 9999 FEW025 15/09 Q1013 NOSIG
  • 300750Z VRB03KT 9999 FEW025 14/08 Q1013 NOSIG
  • 300720Z VRB02KT 9999 FEW030 13/09 Q1013 NOSIG

TAF TAF LGAV
Valid from the 30 at 06:00 until the 31 at 06:00 UTC


300500Z 3006/3106 VRB05KT 9999 FEW018 SCT030
PROB40
TEMPO 3006/3008 5000 BR SCT010
BECMG 3009/3011 04010KT
BECMG 3022/3100 SCT020 BKN070



MET'MAP, your aeronautical weather chart ! - Copyright ORBIFLY December 2007 - Disclaimer

ORBIFLY MET'MAP TEAM :

Programming & Development : Alexandra Zaïnal
Concept & original design : Baudouin d'Aumeries
Assistance for programming : Marc-Olivier Méhu
Technical & hardware support : Manuel Goepfert

Contact : metmap@orbifly.com




SOURCES & CREDITS :

   NOAA